Time;durP1;ratioP1;P1;durP2;ratioP2;P2;SDS_P1;SDS_P2;PMS_P1;PMS_P2;Temp;Humidity;BMP_temperature;BMP_pressure;BME280_temperature;BME280_humidity;BME280_pressure;Samples;Min_cycle;Max_cycle;Signal;HPM_P1;HPM_P2
2021/10/11 00:00:48;;;;;;;33.00;18.35;;;;;;;11.22;89.96;100171.06;5051516;28;20432;-50
2021/10/11 00:03:14;;;;;;;33.40;18.70;;;;;;;11.19;90.39;100164.25;5051593;28;20025;-47
2021/10/11 00:05:39;;;;;;;34.30;19.75;;;;;;;11.22;90.67;100157.72;5051276;28;20631;-48
2021/10/11 00:08:05;;;;;;;31.10;18.40;;;;;;;11.20;90.78;100149.94;5051247;28;20032;-50
2021/10/11 00:10:30;;;;;;;36.35;19.02;;;;;;;10.94;91.52;100159.41;5051083;28;20021;-49
2021/10/11 00:12:56;;;;;;;30.40;18.45;;;;;;;11.10;91.17;100155.63;5051321;28;20032;-49
2021/10/11 00:15:24;;;;;;;35.25;19.40;;;;;;;11.40;89.56;100155.34;5051320;28;20094;-49
2021/10/11 00:17:50;;;;;;;32.30;19.38;;;;;;;11.59;88.96;100160.94;5051578;28;20112;-49
2021/10/11 00:20:15;;;;;;;34.97;18.92;;;;;;;11.41;88.69;100153.50;5051526;28;20096;-52
2021/10/11 00:22:41;;;;;;;34.25;19.33;;;;;;;11.27;89.51;100140.13;5051365;28;20032;-49
2021/10/11 00:25:07;;;;;;;31.90;17.75;;;;;;;11.29;89.74;100122.09;5051398;28;20017;-50
2021/10/11 00:27:32;;;;;;;31.33;17.80;;;;;;;11.12;90.68;100110.16;5051283;28;20025;-50
2021/10/11 00:29:58;;;;;;;30.67;18.15;;;;;;;11.10;90.77;100107.69;5051017;28;20045;-52
2021/10/11 00:32:24;;;;;;;30.75;18.38;;;;;;;11.11;90.86;100089.84;5051298;28;20445;-52
2021/10/11 00:34:49;;;;;;;28.20;17.02;;;;;;;11.00;90.88;100085.09;5050907;28;20028;-50
2021/10/11 00:37:15;;;;;;;30.13;17.02;;;;;;;11.25;90.18;100093.38;5051022;28;20496;-52
2021/10/11 00:39:40;;;;;;;27.80;16.70;;;;;;;11.23;90.73;100092.75;5051073;28;20017;-51
2021/10/11 00:42:06;;;;;;;28.40;17.58;;;;;;;11.23;90.62;100090.94;5050985;28;20102;-49
2021/10/11 00:44:31;;;;;;;32.53;18.15;;;;;;;11.33;89.50;100096.69;5050923;28;20021;-50
2021/10/11 00:46:57;;;;;;;29.25;18.38;;;;;;;11.41;89.52;100100.22;5050655;28;20025;-51
2021/10/11 00:49:22;;;;;;;29.30;18.42;;;;;;;11.34;90.40;100106.31;5050576;28;20457;-49
2021/10/11 00:51:48;;;;;;;30.73;18.60;;;;;;;11.46;89.13;100106.59;5050975;28;20043;-51
2021/10/11 00:54:13;;;;;;;33.60;19.30;;;;;;;11.55;88.49;100105.38;5050558;28;20499;-49
2021/10/11 00:56:39;;;;;;;34.90;20.13;;;;;;;11.63;89.02;100111.53;5049350;28;20024;-49
2021/10/11 00:59:04;;;;;;;29.88;19.63;;;;;;;11.50;89.48;100115.00;5049175;28;20024;-52
2021/10/11 01:01:30;;;;;;;32.47;20.38;;;;;;;11.64;88.47;100111.34;5050457;28;20465;-52
2021/10/11 01:03:55;;;;;;;31.65;19.48;;;;;;;11.72;88.68;100105.81;5050518;28;20062;-50
2021/10/11 01:06:21;;;;;;;29.48;19.25;;;;;;;11.60;88.03;100102.13;5050529;28;20025;-49
2021/10/11 01:08:46;;;;;;;31.42;19.23;;;;;;;11.68;88.16;100096.59;5032275;28;20032;-50
2021/10/11 01:11:12;;;;;;;30.70;19.40;;;;;;;11.63;88.13;100107.06;5048939;28;20554;-51
2021/10/11 01:13:37;;;;;;;33.42;19.05;;;;;;;11.36;89.43;100095.47;5050014;28;20028;-49
2021/10/11 01:16:03;;;;;;;30.13;20.13;;;;;;;11.53;89.15;100095.94;5050204;28;20021;-52
2021/10/11 01:18:28;;;;;;;32.13;20.42;;;;;;;11.57;89.02;100091.84;5050221;28;20033;-51
2021/10/11 01:20:54;;;;;;;33.75;20.25;;;;;;;11.67;88.66;100086.97;5050179;28;20013;-52
2021/10/11 01:23:19;;;;;;;31.83;20.30;;;;;;;11.75;88.07;100083.28;5050167;28;20380;-51
2021/10/11 01:25:45;;;;;;;29.73;19.65;;;;;;;11.53;88.86;100085.28;5050077;28;20025;-50
2021/10/11 01:28:10;;;;;;;33.90;20.88;;;;;;;11.60;87.82;100080.78;5050066;28;20024;-50
2021/10/11 01:30:36;;;;;;;29.67;20.00;;;;;;;11.77;87.24;100075.91;5049921;28;20073;-49
2021/10/11 01:33:01;;;;;;;29.92;18.75;;;;;;;11.51;89.45;100074.81;5050180;28;20032;-51
2021/10/11 01:35:27;;;;;;;33.45;20.38;;;;;;;11.60;88.81;100075.47;5050185;28;20500;-51
2021/10/11 01:37:52;;;;;;;31.90;18.92;;;;;;;11.40;89.04;100067.41;5050063;28;20017;-49
2021/10/11 01:40:20;;;;;;;31.95;19.08;;;;;;;11.44;89.37;100067.81;5049808;28;20025;-51
2021/10/11 01:42:46;;;;;;;28.65;18.48;;;;;;;11.28;89.46;100075.16;5050004;28;20032;-50
2021/10/11 01:45:11;;;;;;;27.98;18.67;;;;;;;11.18;90.49;100063.25;5050007;28;20372;-49
2021/10/11 01:47:37;;;;;;;31.90;19.48;;;;;;;11.31;90.95;100068.63;5050111;28;20457;-51
2021/10/11 01:50:03;;;;;;;33.90;21.13;;;;;;;11.37;89.42;100061.69;5049731;28;20479;-49
2021/10/11 01:52:28;;;;;;;31.60;20.45;;;;;;;11.29;90.24;100055.50;5049557;28;20432;-49
2021/10/11 01:54:54;;;;;;;31.73;19.73;;;;;;;11.25;90.85;100048.94;5049711;28;20040;-51
2021/10/11 01:57:19;;;;;;;29.20;19.17;;;;;;;11.16;90.08;100044.81;5050820;28;20064;-51
2021/10/11 01:59:45;;;;;;;30.90;19.63;;;;;;;11.39;90.50;100048.97;5053747;28;20040;-50
2021/10/11 02:02:10;;;;;;;29.98;19.52;;;;;;;11.23;90.70;100044.81;5053840;28;20400;-51
2021/10/11 02:04:36;;;;;;;31.02;19.17;;;;;;;11.35;90.61;100040.56;5053885;28;20059;-51
2021/10/11 02:07:01;;;;;;;28.45;18.15;;;;;;;11.38;90.00;100042.78;5054171;28;20415;-50
2021/10/11 02:09:27;;;;;;;29.67;19.25;;;;;;;11.45;90.18;100027.66;5054413;28;20462;-50
2021/10/11 02:11:52;;;;;;;27.90;18.55;;;;;;;11.29;90.33;100028.84;5054258;28;20021;-51
2021/10/11 02:14:18;;;;;;;26.17;18.13;;;;;;;11.34;90.40;100034.38;5054044;28;20066;-50
2021/10/11 02:16:43;;;;;;;27.65;17.17;;;;;;;11.40;90.47;100031.94;5054311;28;20075;-49
2021/10/11 02:19:09;;;;;;;30.33;18.83;;;;;;;11.50;89.37;100024.41;5054316;28;20444;-49
2021/10/11 02:21:34;;;;;;;31.02;18.30;;;;;;;11.49;90.06;100020.88;5054160;28;20396;-50
2021/10/11 02:24:00;;;;;;;26.48;17.23;;;;;;;11.63;88.76;100015.56;5053995;28;20031;-50
2021/10/11 02:26:25;;;;;;;32.05;18.05;;;;;;;11.58;89.11;100021.53;5054026;28;20457;-49
2021/10/11 02:28:51;;;;;;;27.00;17.10;;;;;;;11.67;88.10;100019.47;5054104;28;20017;-49
2021/10/11 02:31:17;;;;;;;25.15;16.40;;;;;;;11.59;88.77;100019.69;5053549;28;20053;-51
2021/10/11 02:33:42;;;;;;;27.42;16.75;;;;;;;11.59;88.86;100017.00;5053726;28;20115;-50
2021/10/11 02:36:08;;;;;;;27.02;17.27;;;;;;;11.55;89.82;100013.94;5053963;28;20032;-49
2021/10/11 02:38:33;;;;;;;25.13;15.65;;;;;;;11.41;89.65;100009.63;5053446;28;20025;-49
2021/10/11 02:40:59;;;;;;;26.70;16.45;;;;;;;11.69;89.21;100001.44;5054092;28;20451;-52
2021/10/11 02:43:24;;;;;;;31.17;16.92;;;;;;;11.67;88.30;100004.31;5053971;28;20056;-49
2021/10/11 02:45:50;;;;;;;30.02;17.65;;;;;;;11.77;88.09;100000.44;5053859;28;20465;-50
2021/10/11 02:48:15;;;;;;;25.70;16.90;;;;;;;11.57;88.59;99997.75;5054209;28;20036;-51
2021/10/11 02:50:41;;;;;;;30.92;17.25;;;;;;;11.42;90.30;99995.25;5053790;28;20055;-52
2021/10/11 02:53:06;;;;;;;35.20;19.45;;;;;;;11.70;88.63;99989.75;5053545;28;20382;-49
2021/10/11 02:55:31;;;;;;;29.30;19.75;;;;;;;11.45;89.91;99994.88;5053953;28;20044;-50
2021/10/11 02:57:57;;;;;;;26.20;17.98;;;;;;;11.61;88.56;99990.97;5053751;28;20025;-50
2021/10/11 03:00:22;;;;;;;27.55;17.00;;;;;;;11.45;90.18;99989.53;5053176;28;20017;-50
2021/10/11 03:02:48;;;;;;;31.38;18.88;;;;;;;11.39;90.18;99985.84;5053698;28;20025;-50
2021/10/11 03:05:13;;;;;;;32.15;18.10;;;;;;;11.38;89.82;99983.38;5053249;28;20068;-52
2021/10/11 03:07:39;;;;;;;32.05;18.67;;;;;;;11.39;90.75;99985.03;5053354;28;20029;-51
2021/10/11 03:10:05;;;;;;;30.33;18.98;;;;;;;11.29;90.16;99980.91;5052020;28;20029;-49
2021/10/11 03:12:30;;;;;;;30.40;19.58;;;;;;;11.35;90.75;99974.75;5053664;28;20035;-50
2021/10/11 03:14:55;;;;;;;31.70;18.88;;;;;;;11.41;90.54;99980.31;5053095;28;20088;-52
2021/10/11 03:17:21;;;;;;;25.80;16.90;;;;;;;11.21;90.57;99974.94;5052956;28;20021;-52
2021/10/11 03:19:46;;;;;;;34.22;18.98;;;;;;;11.26;91.45;99978.63;5053269;28;20020;-51
2021/10/11 03:22:12;;;;;;;33.92;18.55;;;;;;;11.35;91.21;99977.41;5053117;28;20028;-52
2021/10/11 03:24:37;;;;;;;30.92;17.77;;;;;;;11.40;90.23;99970.66;5051949;28;20056;-49
2021/10/11 03:27:03;;;;;;;30.95;18.60;;;;;;;11.23;90.85;99976.38;5052859;28;20118;-49
2021/10/11 03:29:28;;;;;;;36.35;20.17;;;;;;;11.60;89.69;99968.84;5052329;28;20346;-49
2021/10/11 03:31:54;;;;;;;28.33;18.20;;;;;;;11.27;90.60;99958.97;5052540;28;20087;-52
2021/10/11 03:34:20;;;;;;;31.52;17.33;;;;;;;11.41;89.76;99956.31;5052699;28;20372;-52
2021/10/11 03:36:46;;;;;;;27.75;17.52;;;;;;;11.27;90.63;99950.13;5052649;28;20163;-52
2021/10/11 03:39:11;;;;;;;26.27;17.27;;;;;;;11.38;90.82;99946.06;5051612;28;20104;-51
2021/10/11 03:41:37;;;;;;;27.63;16.65;;;;;;;11.25;91.11;99950.38;5052275;28;20044;-54
2021/10/11 03:44:05;;;;;;;25.27;16.08;;;;;;;11.27;91.27;99948.31;5052573;28;20020;-51
2021/10/11 03:46:30;;;;;;;28.50;16.77;;;;;;;11.38;91.30;99946.88;5052624;28;20358;-53
2021/10/11 03:48:56;;;;;;;24.45;16.40;;;;;;;11.44;91.02;99945.25;5052735;28;20445;-54
2021/10/11 03:51:21;;;;;;;26.63;17.40;;;;;;;11.31;90.92;99943.41;5052183;28;20100;-53
2021/10/11 03:53:50;;;;;;;27.20;16.35;;;;;;;11.39;91.16;99943.19;5061298;28;20020;-50
2021/10/11 03:56:16;;;;;;;24.27;15.77;;;;;;;11.41;91.44;99951.00;5051504;28;20025;-52
2021/10/11 03:58:41;;;;;;;29.92;17.05;;;;;;;11.57;89.97;99945.25;5051497;28;20028;-52
2021/10/11 04:01:06;;;;;;;36.45;22.73;;;;;;;11.37;90.48;99944.44;5051611;28;20021;-52
2021/10/11 04:03:32;;;;;;;29.27;17.65;;;;;;;11.52;90.88;99943.22;5051051;28;20028;-53
2021/10/11 04:05:58;;;;;;;27.88;16.85;;;;;;;11.94;88.02;99940.34;5051211;28;20461;-51
2021/10/11 04:08:31;;;;;;;28.48;18.10;;;;;;;11.53;89.39;99939.50;5051205;28;20021;-50
2021/10/11 04:11:09;;;;;;;26.20;16.23;;;;;;;11.63;89.50;99939.13;5051080;28;20397;-51
2021/10/11 04:13:34;;;;;;;25.52;16.15;;;;;;;11.49;90.23;99940.13;5051608;28;20132;-50
2021/10/11 04:16:00;;;;;;;26.13;16.52;;;;;;;11.54;89.87;99935.81;5051373;28;20566;-51
2021/10/11 04:18:25;;;;;;;23.92;15.85;;;;;;;11.25;91.65;99937.03;5051467;28;20025;-53
2021/10/11 04:20:51;;;;;;;24.92;17.02;;;;;;;11.65;90.02;99936.22;5050388;28;20473;-51
2021/10/11 04:23:16;;;;;;;25.40;17.08;;;;;;;11.32;90.85;99932.53;5051278;28;20089;-50
2021/10/11 04:25:42;;;;;;;28.80;16.95;;;;;;;11.34;91.04;99925.16;5051397;28;20025;-52
2021/10/11 04:28:09;;;;;;;27.15;17.10;;;;;;;11.62;89.91;99932.13;5046419;28;20083;-52
2021/10/11 04:30:35;;;;;;;28.90;17.33;;;;;;;11.70;89.08;99933.78;5035943;28;20164;-50
2021/10/11 04:33:00;;;;;;;30.90;17.17;;;;;;;11.57;90.18;99929.25;5048913;28;20497;-49
2021/10/11 04:35:27;;;;;;;30.92;17.23;;;;;;;11.30;90.74;99926.59;5050227;28;20087;-50
2021/10/11 04:37:52;;;;;;;26.50;17.17;;;;;;;11.26;91.17;99932.53;5050276;28;20467;-50
2021/10/11 04:40:19;;;;;;;27.92;17.75;;;;;;;11.39;90.97;99934.41;5049815;28;20078;-52
2021/10/11 04:42:44;;;;;;;29.73;17.52;;;;;;;11.44;90.68;99935.44;5048308;28;20055;-52
2021/10/11 04:45:10;;;;;;;31.83;17.95;;;;;;;11.57;89.97;99926.59;5048420;28;20017;-51
2021/10/11 04:47:35;;;;;;;30.48;18.13;;;;;;;11.43;90.38;99935.63;5048350;28;20067;-52
2021/10/11 04:50:01;;;;;;;33.22;18.40;;;;;;;11.30;91.94;99928.44;5048196;28;20422;-51
2021/10/11 04:52:26;;;;;;;31.17;18.90;;;;;;;11.46;91.31;99937.84;5048402;28;20021;-51
2021/10/11 04:54:52;;;;;;;28.38;17.70;;;;;;;11.68;89.79;99939.31;5048879;28;20112;-53
2021/10/11 04:57:17;;;;;;;30.48;19.08;;;;;;;11.71;89.43;99936.25;5049732;28;20025;-53
2021/10/11 04:59:43;;;;;;;30.13;19.35;;;;;;;11.70;89.41;99944.44;5049888;28;20075;-52
2021/10/11 05:02:08;;;;;;;30.67;18.13;;;;;;;11.72;89.51;99945.84;5050363;28;20566;-52
2021/10/11 05:04:34;;;;;;;28.05;18.75;;;;;;;11.66;90.23;99943.22;5050325;28;20031;-51
2021/10/11 05:06:59;;;;;;;52.03;30.75;;;;;;;11.53;90.77;99944.84;5050305;28;20086;-52
2021/10/11 05:09:25;;;;;;;30.67;19.35;;;;;;;11.49;91.06;99930.28;5050415;28;20516;-53
2021/10/11 05:11:50;;;;;;;28.50;19.85;;;;;;;11.54;91.49;99940.34;5050119;28;20078;-51
2021/10/11 05:14:16;;;;;;;36.53;23.67;;;;;;;11.77;90.10;99936.44;5050222;28;20481;-51
2021/10/11 05:16:41;;;;;;;28.77;19.02;;;;;;;11.58;90.36;99932.75;5049880;28;20036;-51
2021/10/11 05:19:07;;;;;;;29.10;18.27;;;;;;;11.47;90.63;99932.34;5050400;28;20024;-52
2021/10/11 05:21:32;;;;;;;27.30;18.73;;;;;;;11.58;90.82;99946.09;5049920;28;20499;-52
2021/10/11 05:23:58;;;;;;;29.60;19.42;;;;;;;11.53;90.94;99947.50;5049786;28;20496;-52
2021/10/11 05:26:23;;;;;;;29.70;20.08;;;;;;;11.59;91.32;99943.19;5049662;28;20029;-50
2021/10/11 05:28:49;;;;;;;28.25;19.25;;;;;;;11.60;91.29;99942.19;5049854;28;20128;-52
2021/10/11 05:31:14;;;;;;;30.63;19.65;;;;;;;11.90;89.72;99949.78;5049163;28;20134;-51
2021/10/11 05:33:40;;;;;;;30.73;19.75;;;;;;;11.74;89.50;99956.31;5049302;28;20029;-51
2021/10/11 05:36:05;;;;;;;30.02;20.17;;;;;;;12.01;88.82;99957.13;5049710;28;20124;-52
2021/10/11 05:38:31;;;;;;;31.83;21.00;;;;;;;11.81;89.67;99951.81;5031778;28;20032;-51
2021/10/11 05:40:57;;;;;;;28.73;17.85;;;;;;;11.45;91.17;99928.25;5050065;28;20024;-52
2021/10/11 05:43:22;;;;;;;30.15;19.73;;;;;;;11.63;91.21;99952.44;5050187;28;20028;-52
2021/10/11 05:45:48;;;;;;;28.23;19.35;;;;;;;11.70;90.31;99939.09;5050051;28;20456;-53
2021/10/11 05:48:13;;;;;;;30.02;18.33;;;;;;;11.61;90.88;99938.47;5049758;28;20040;-54
2021/10/11 05:50:39;;;;;;;28.77;19.40;;;;;;;11.63;90.81;99935.63;5050363;28;20112;-54
2021/10/11 05:53:04;;;;;;;30.85;19.35;;;;;;;11.79;91.01;99940.53;5060246;28;20028;-54
2021/10/11 05:55:30;;;;;;;28.23;19.92;;;;;;;11.96;88.92;99938.28;5069845;28;20149;-53
2021/10/11 05:57:56;;;;;;;28.08;18.48;;;;;;;11.82;90.13;99939.28;5069597;28;20028;-51
2021/10/11 06:00:22;;;;;;;27.92;17.85;;;;;;;11.90;89.51;99939.13;5069569;28;20089;-52
2021/10/11 06:02:47;;;;;;;24.80;16.85;;;;;;;11.86;90.55;99937.84;5069527;28;20388;-53
2021/10/11 06:05:13;;;;;;;25.67;17.58;;;;;;;11.89;89.58;99932.94;5069699;28;20535;-51
2021/10/11 06:07:38;;;;;;;26.38;17.15;;;;;;;11.85;89.88;99933.56;5069797;28;20025;-53
2021/10/11 06:10:04;;;;;;;27.75;17.80;;;;;;;11.72;90.87;99932.53;5069385;28;20024;-52
2021/10/11 06:12:29;;;;;;;26.80;17.55;;;;;;;11.81;91.08;99935.00;5069643;28;20031;-52
2021/10/11 06:14:55;;;;;;;26.10;17.08;;;;;;;11.85;90.67;99937.03;5068121;28;20031;-50
2021/10/11 06:17:21;;;;;;;22.77;15.77;;;;;;;11.80;90.42;99915.50;5069554;28;20024;-54
2021/10/11 06:19:46;;;;;;;26.27;17.00;;;;;;;11.81;91.08;99940.34;5069917;28;20024;-52
2021/10/11 06:22:12;;;;;;;23.60;15.48;;;;;;;11.78;91.39;99946.06;5049962;28;20401;-51
2021/10/11 06:24:37;;;;;;;23.42;14.52;;;;;;;11.73;92.80;99942.19;5049496;28;20017;-52
2021/10/11 06:27:03;;;;;;;24.08;15.55;;;;;;;11.71;93.09;99944.22;5049114;28;20094;-52
2021/10/11 06:29:29;;;;;;;19.92;13.50;;;;;;;11.61;92.71;99940.31;5049283;28;20067;-52
2021/10/11 06:31:55;;;;;;;21.25;14.73;;;;;;;11.91;92.18;99941.56;5049348;28;20080;-52
2021/10/11 06:34:21;;;;;;;22.85;14.90;;;;;;;11.99;92.21;99939.72;5048861;28;20152;-49
2021/10/11 06:36:47;;;;;;;19.15;12.77;;;;;;;12.04;91.51;99939.91;5049275;28;20055;-51
2021/10/11 06:39:12;;;;;;;17.83;13.10;;;;;;;12.09;90.76;99935.59;5049643;28;20040;-53
2021/10/11 06:41:38;;;;;;;21.50;13.57;;;;;;;12.10;92.20;99941.75;5049382;28;20389;-50
2021/10/11 06:44:03;;;;;;;17.88;13.23;;;;;;;12.55;90.11;99941.00;5051232;28;20078;-51
2021/10/11 06:46:29;;;;;;;17.52;13.02;;;;;;;12.07;91.36;99939.47;5053024;28;20025;-52
2021/10/11 06:48:54;;;;;;;17.50;12.27;;;;;;;12.06;91.15;99949.34;5052586;28;20031;-50
2021/10/11 06:51:20;;;;;;;16.85;11.57;;;;;;;12.20;91.09;99938.66;5051421;28;20041;-50
2021/10/11 06:53:45;;;;;;;17.35;12.45;;;;;;;12.13;91.37;99936.00;5068470;28;20457;-50
2021/10/11 06:56:11;;;;;;;17.00;10.70;;;;;;;12.16;91.25;99930.22;5072444;28;20111;-51
2021/10/11 06:58:36;;;;;;;17.02;11.20;;;;;;;12.27;90.59;99942.94;5072052;28;20407;-51
2021/10/11 07:01:02;;;;;;;18.00;11.05;;;;;;;12.30;90.46;99936.38;5071834;28;20067;-52
2021/10/11 07:03:27;;;;;;;19.95;11.75;;;;;;;12.25;91.05;99945.00;5072357;28;20035;-52
2021/10/11 07:05:57;;;;;;;17.33;11.55;;;;;;;12.44;89.72;99945.16;5072749;28;20530;-40
2021/10/11 07:08:22;;;;;;;17.15;11.07;;;;;;;12.32;90.55;99942.31;5072989;28;20043;-40
2021/10/11 07:10:48;;;;;;;17.55;11.27;;;;;;;12.52;89.67;99953.72;5072281;28;20396;-49
2021/10/11 07:13:13;;;;;;;19.10;12.00;;;;;;;12.57;89.19;99952.28;5072706;28;20491;-51
2021/10/11 07:15:39;;;;;;;18.65;12.38;;;;;;;12.72;88.25;99952.84;5072460;28;20020;-52
2021/10/11 07:18:04;;;;;;;13.82;10.27;;;;;;;12.52;89.21;99942.25;5072657;28;20032;-51
2021/10/11 07:20:30;;;;;;;14.90;9.75;;;;;;;12.37;90.21;99931.00;5067195;28;20035;-53
2021/10/11 07:22:55;;;;;;;18.00;9.93;;;;;;;12.39;90.55;99927.09;5052481;28;20021;-50
2021/10/11 07:25:21;;;;;;;13.45;9.60;;;;;;;12.68;89.19;99925.75;5052471;28;20025;-52
2021/10/11 07:27:46;;;;;;;15.10;10.25;;;;;;;12.51;89.68;99919.25;5052435;28;20028;-52
2021/10/11 07:30:12;;;;;;;13.43;9.65;;;;;;;12.26;90.29;99913.78;5052299;28;20045;-53
2021/10/11 07:32:37;;;;;;;16.65;9.75;;;;;;;12.13;91.27;99907.47;5052532;28;20041;-52
2021/10/11 07:35:03;;;;;;;13.68;9.10;;;;;;;12.08;92.05;99904.59;5052466;28;20025;-51
2021/10/11 07:37:28;;;;;;;15.50;9.98;;;;;;;12.13;92.40;99901.31;5052555;28;20032;-51
2021/10/11 07:39:54;;;;;;;19.35;11.38;;;;;;;12.70;89.71;99905.00;5052473;28;20550;-49
2021/10/11 07:42:19;;;;;;;15.23;9.65;;;;;;;12.51;90.16;99898.72;5051865;28;20060;-51
2021/10/11 07:44:45;;;;;;;13.60;9.68;;;;;;;12.38;90.39;99895.28;5051971;28;20424;-51
2021/10/11 07:47:10;;;;;;;16.77;10.02;;;;;;;12.33;91.48;99896.72;5051682;28;20025;-48
2021/10/11 07:49:36;;;;;;;15.80;10.85;;;;;;;12.46;90.90;99903.06;5052040;28;20025;-48
2021/10/11 07:52:01;;;;;;;17.50;11.63;;;;;;;12.82;90.23;99899.78;5053563;28;20024;-50
2021/10/11 07:54:27;;;;;;;17.23;11.77;;;;;;;12.82;89.15;99902.47;5071524;28;20098;-50
2021/10/11 07:56:53;;;;;;;15.23;10.82;;;;;;;12.76;89.28;99902.50;5071394;28;20147;-50
2021/10/11 07:59:18;;;;;;;15.70;10.95;;;;;;;12.63;89.99;99896.19;5071663;28;20031;-48
2021/10/11 08:01:43;;;;;;;15.45;11.27;;;;;;;12.65;90.34;99887.97;5071864;28;20025;-48
2021/10/11 08:04:09;;;;;;;13.70;9.13;;;;;;;12.61;89.63;99895.59;5057315;28;20091;-49
2021/10/11 08:06:34;;;;;;;12.68;9.35;;;;;;;12.42;91.26;99886.63;5051961;28;20021;-49
2021/10/11 08:09:00;;;;;;;16.40;9.95;;;;;;;12.46;91.64;99887.03;5051604;28;20064;-49
2021/10/11 08:11:25;;;;;;;12.40;8.60;;;;;;;12.62;89.48;99889.22;5051816;28;20040;-51
2021/10/11 08:13:51;;;;;;;14.25;9.60;;;;;;;12.73;90.17;99889.56;5051638;28;20029;-49
2021/10/11 08:16:16;;;;;;;15.35;9.40;;;;;;;12.74;89.71;99889.38;5051270;28;20021;-50
2021/10/11 08:18:42;;;;;;;13.00;9.52;;;;;;;12.76;89.34;99886.50;5051572;28;20068;-50
2021/10/11 08:21:08;;;;;;;12.98;9.27;;;;;;;12.56;89.93;99881.25;5051388;28;20086;-50
2021/10/11 08:23:36;;;;;;;14.07;9.50;;;;;;;12.61;90.83;99874.22;5051106;28;20350;-51
2021/10/11 08:26:02;;;;;;;13.45;7.70;;;;;;;12.48;90.87;99871.63;5052087;28;20119;-51
2021/10/11 08:28:28;;;;;;;11.02;8.10;;;;;;;12.70;89.88;99867.63;5059084;28;20029;-49
2021/10/11 08:30:54;;;;;;;9.48;7.75;;;;;;;12.74;89.69;99878.69;5061317;28;20051;-52
2021/10/11 08:33:19;;;;;;;11.95;7.88;;;;;;;12.46;90.63;99869.16;5054275;28;20036;-51
2021/10/11 08:35:45;;;;;;;13.23;8.35;;;;;;;12.55;90.37;99875.09;5060027;28;20058;-51
2021/10/11 08:38:10;;;;;;;10.68;8.02;;;;;;;12.78;90.25;99869.22;5062522;28;20370;-51
2021/10/11 08:40:36;;;;;;;11.30;8.02;;;;;;;12.83;89.59;99856.03;5055800;28;20124;-50
2021/10/11 08:43:02;;;;;;;10.45;8.05;;;;;;;12.59;90.68;99862.13;5051141;28;20453;-40
2021/10/11 08:45:27;;;;;;;10.30;7.93;;;;;;;12.73;90.53;99862.88;5050821;28;20025;-41
2021/10/11 08:47:53;;;;;;;11.65;7.90;;;;;;;12.85;89.71;99855.81;5051269;28;20032;-40
2021/10/11 08:50:18;;;;;;;9.60;7.53;;;;;;;12.89;88.74;99849.84;5050625;28;20021;-40
2021/10/11 08:52:45;;;;;;;10.77;7.30;;;;;;;12.80;89.35;99852.97;5050596;28;20021;-40
2021/10/11 08:55:11;;;;;;;9.07;7.30;;;;;;;12.74;91.80;99853.81;5048846;28;20024;-41
2021/10/11 08:57:37;;;;;;;12.98;9.07;;;;;;;13.32;89.10;99848.28;5050405;28;20070;-40
2021/10/11 09:00:14;;;;;;;9.98;7.40;;;;;;;13.12;88.64;99848.44;5050857;28;20013;-40
2021/10/11 09:02:53;;;;;;;9.05;7.32;;;;;;;13.04;89.11;99846.84;5050830;28;20358;-40
2021/10/11 09:05:26;;;;;;;11.23;7.22;;;;;;;13.11;89.35;99852.13;5050628;28;20021;-41
2021/10/11 09:08:02;;;;;;;8.73;7.38;;;;;;;12.98;89.94;99837.00;5050477;28;20110;-40
2021/10/11 09:10:29;;;;;;;9.77;7.38;;;;;;;13.16;89.31;99841.63;5049379;28;20025;-40
2021/10/11 09:12:54;;;;;;;9.98;7.75;;;;;;;13.71;86.52;99834.75;5050635;28;20104;-41
2021/10/11 09:15:20;;;;;;;11.32;7.10;;;;;;;13.36;87.29;99833.44;5033021;28;20465;-40
2021/10/11 09:17:56;;;;;;;8.48;6.40;;;;;;;13.09;88.34;99840.84;5051019;28;20086;-41
2021/10/11 09:20:23;;;;;;;8.18;6.50;;;;;;;13.13;88.18;99846.56;5051136;28;20032;-40
2021/10/11 09:22:51;;;;;;;10.07;6.65;;;;;;;13.16;87.81;99846.97;5049837;28;20086;-40
2021/10/11 09:25:17;;;;;;;8.23;6.70;;;;;;;13.23;88.19;99849.56;5048383;28;20036;-40
2021/10/11 09:27:45;;;;;;;7.47;6.15;;;;;;;13.23;87.70;99847.72;5048517;28;20400;-38
2021/10/11 09:30:12;;;;;;;7.55;6.30;;;;;;;13.61;85.87;99845.97;5049274;28;20131;-40
2021/10/11 09:32:37;;;;;;;8.45;6.20;;;;;;;13.25;87.34;99842.16;5050398;28;20043;-40
2021/10/11 09:35:18;;;;;;;7.53;6.40;;;;;;;13.05;88.76;99843.13;5049762;28;20020;-40
2021/10/11 09:37:50;;;;;;;7.45;6.55;;;;;;;12.95;90.10;99834.78;5048471;28;20496;-40
2021/10/11 09:40:17;;;;;;;9.18;7.32;;;;;;;12.90;90.93;99837.28;5046870;28;20143;-40
2021/10/11 09:42:42;;;;;;;9.38;7.68;;;;;;;13.30;90.11;99821.78;5047666;28;20047;-41
2021/10/11 09:45:08;;;;;;;9.63;6.90;;;;;;;13.19;88.25;99827.81;5047788;28;20032;-39
2021/10/11 09:47:36;;;;;;;9.13;6.43;;;;;;;12.97;89.47;99829.25;5048575;28;20090;-40
2021/10/11 09:50:07;;;;;;;10.27;7.78;;;;;;;13.11;89.54;99826.22;5048650;28;20037;-40
2021/10/11 09:52:33;;;;;;;10.30;7.68;;;;;;;13.08;89.76;99820.53;5056116;28;20105;-39
2021/10/11 09:54:58;;;;;;;10.05;8.30;;;;;;;13.49;88.62;99813.81;5070237;28;20020;-39
2021/10/11 09:57:24;;;;;;;8.38;7.18;;;;;;;14.13;85.25;99811.66;5070457;28;20062;-40
2021/10/11 09:59:50;;;;;;;7.63;6.68;;;;;;;13.58;85.76;99811.66;5070178;28;20443;-39
2021/10/11 10:02:17;;;;;;;9.38;7.13;;;;;;;13.52;86.47;99813.38;5069983;28;20162;-40
2021/10/11 10:04:43;;;;;;;8.73;7.65;;;;;;;13.41;87.60;99814.91;5052634;28;20032;-39
2021/10/11 10:07:09;;;;;;;9.60;7.80;;;;;;;13.58;86.76;99804.47;5068532;28;20028;-38
2021/10/11 10:09:38;;;;;;;8.10;7.20;;;;;;;13.46;86.82;99796.38;5069045;28;20134;-39
2021/10/11 10:12:04;;;;;;;8.90;7.30;;;;;;;13.71;87.17;99805.34;5052530;28;20028;-40
2021/10/11 10:14:32;;;;;;;9.35;7.45;;;;;;;14.07;84.98;99788.50;5068762;28;20110;-39
2021/10/11 10:16:57;;;;;;;9.75;7.60;;;;;;;13.62;86.09;99783.44;5070062;28;20414;-39
2021/10/11 10:20:02;;;;;;;10.40;7.70;;;;;;;13.43;87.38;99783.44;5072808;28;20055;-39
2021/10/11 10:22:28;;;;;;;10.38;8.23;;;;;;;13.54;87.31;99781.88;5053228;28;20055;-39
2021/10/11 10:25:06;;;;;;;10.88;8.52;;;;;;;13.51;87.76;99781.50;5073889;28;20404;-39
2021/10/11 10:27:36;;;;;;;11.43;9.35;;;;;;;13.66;88.55;99774.75;5073882;28;20036;-38
2021/10/11 10:30:19;;;;;;;14.82;11.15;;;;;;;14.41;84.32;99778.13;5073770;28;20036;-38
2021/10/11 10:33:05;;;;;;;10.27;8.85;;;;;;;13.74;86.28;99767.47;5074145;28;20137;-38
2021/10/11 10:35:32;;;;;;;11.98;8.52;;;;;;;13.45;87.99;99757.28;5073614;28;20024;-39
2021/10/11 10:37:58;;;;;;;12.35;10.13;;;;;;;13.37;89.70;99754.09;5073597;28;20021;-39
2021/10/11 10:40:32;;;;;;;11.40;9.65;;;;;;;13.37;89.32;99752.25;5073638;28;20141;-39
2021/10/11 10:43:09;;;;;;;11.30;8.90;;;;;;;13.79;88.98;99748.91;5071261;28;20477;-39
2021/10/11 10:45:37;;;;;;;10.82;8.88;;;;;;;14.03;86.65;99756.00;5053626;28;20036;-39
2021/10/11 10:48:03;;;;;;;9.90;8.20;;;;;;;13.83;86.53;99744.75;5053287;28;20056;-40
2021/10/11 10:50:32;;;;;;;9.75;7.82;;;;;;;13.67;87.31;99752.31;5052517;28;20028;-39
2021/10/11 10:52:59;;;;;;;10.45;8.60;;;;;;;13.74;88.13;99740.72;5053957;28;20017;-39
2021/10/11 10:55:25;;;;;;;8.75;7.53;;;;;;;13.63;88.00;99745.78;5053505;28;20029;-39
2021/10/11 10:57:57;;;;;;;8.90;7.07;;;;;;;13.61;89.44;99736.34;5053291;28;20052;-39
2021/10/11 11:00:23;;;;;;;9.98;8.30;;;;;;;14.12;87.21;99739.63;5053644;28;20044;-39
2021/10/11 11:02:50;;;;;;;7.25;6.15;;;;;;;13.75;86.48;99731.69;5053671;28;20044;-39
2021/10/11 11:05:16;;;;;;;7.40;6.40;;;;;;;13.83;86.36;99729.50;5053356;28;20459;-39
2021/10/11 11:07:42;;;;;;;8.05;6.50;;;;;;;13.74;87.64;99730.84;5053053;28;20025;-39
2021/10/11 11:10:15;;;;;;;7.55;6.45;;;;;;;13.68;88.81;99721.84;5053035;28;20047;-39
2021/10/11 11:13:16;;;;;;;6.88;6.18;;;;;;;13.70;88.91;99721.63;5053050;28;20133;-39
2021/10/11 11:15:52;;;;;;;7.55;6.75;;;;;;;14.32;86.05;99729.47;5051913;28;20033;-39